Time;durP1;ratioP1;P1;durP2;ratioP2;P2;SDS_P1;SDS_P2;PMS_P1;PMS_P2;Temp;Humidity;BMP_temperature;BMP_pressure;BME280_temperature;BME280_humidity;BME280_pressure;Samples;Min_cycle;Max_cycle;Signal;HPM_P1;HPM_P2
2022/08/31 00:05:55;;;;;;;6.93;4.03;;;19.50;99.90;;;;;;5022329;28;20847;-73
2022/08/31 00:08:21;;;;;;;9.40;4.47;;;19.40;99.90;;;;;;5031256;28;20505;-73
2022/08/31 00:10:48;;;;;;;7.73;4.90;;;19.40;99.90;;;;;;5016185;28;20455;-73
2022/08/31 00:13:16;;;;;;;5.97;4.30;;;19.40;99.90;;;;;;5021925;28;20442;-73
2022/08/31 00:15:44;;;;;;;8.27;4.57;;;19.40;99.90;;;;;;5022228;28;20457;-73
2022/08/31 00:18:10;;;;;;;6.87;4.70;;;19.40;99.90;;;;;;5016322;28;20455;-73
2022/08/31 00:20:37;;;;;;;9.03;4.43;;;19.30;99.90;;;;;;5030420;28;20454;-73
2022/08/31 00:23:06;;;;;;;7.50;4.60;;;19.30;99.90;;;;;;5030890;28;20882;-73
2022/08/31 00:25:33;;;;;;;4.43;4.03;;;19.30;99.90;;;;;;5016445;28;20512;-73
2022/08/31 00:28:01;;;;;;;9.57;4.80;;;19.30;99.90;;;;;;5026669;28;20438;-73
2022/08/31 00:30:27;;;;;;;13.23;4.87;;;19.30;99.90;;;;;;5030585;28;20446;-73
2022/08/31 00:32:55;;;;;;;7.63;5.13;;;19.30;99.90;;;;;;5031910;28;20452;-73
2022/08/31 00:35:22;;;;;;;7.30;4.90;;;19.20;99.90;;;;;;5033662;28;20505;-73
2022/08/31 00:37:49;;;;;;;7.43;5.20;;;19.20;99.90;;;;;;5014846;28;20434;-73
2022/08/31 00:40:16;;;;;;;6.57;4.63;;;19.20;99.90;;;;;;5019812;28;21072;-73
2022/08/31 00:42:42;;;;;;;9.90;4.67;;;19.20;99.90;;;;;;5015788;28;20889;-73
2022/08/31 00:45:10;;;;;;;7.80;5.20;;;19.20;99.90;;;;;;5013249;28;20989;-73
2022/08/31 00:47:37;;;;;;;6.80;5.30;;;19.20;99.90;;;;;;5013598;28;20451;-73
2022/08/31 00:50:08;;;;;;;5.70;4.83;;;19.20;99.90;;;;;;5026892;28;20483;-73
2022/08/31 00:52:39;;;;;;;5.50;4.40;;;19.20;99.90;;;;;;5031868;28;20462;-73
2022/08/31 00:55:11;;;;;;;9.60;4.47;;;19.20;99.90;;;;;;5014900;28;20476;-73
2022/08/31 00:57:42;;;;;;;11.97;4.97;;;19.20;99.90;;;;;;5025508;28;21006;-73
2022/08/31 01:00:12;;;;;;;5.27;4.23;;;19.20;99.90;;;;;;5020547;28;20900;-73
2022/08/31 01:02:39;;;;;;;7.87;4.77;;;19.20;99.90;;;;;;5024277;28;20453;-73
2022/08/31 01:05:08;;;;;;;7.07;5.17;;;19.20;99.90;;;;;;5014308;28;20482;-73
2022/08/31 01:07:35;;;;;;;7.40;5.00;;;19.20;99.90;;;;;;5019116;28;20497;-73
2022/08/31 01:10:02;;;;;;;6.30;4.70;;;19.20;99.90;;;;;;5020911;28;20429;-73
2022/08/31 01:12:29;;;;;;;7.97;4.93;;;19.20;99.90;;;;;;5022506;28;20487;-73
2022/08/31 01:14:57;;;;;;;5.77;4.30;;;19.20;99.90;;;;;;5030462;28;20478;-73
2022/08/31 01:17:24;;;;;;;6.30;4.47;;;19.20;99.90;;;;;;5018777;28;20860;-73
2022/08/31 01:19:57;;;;;;;10.20;4.50;;;19.20;99.90;;;;;;5014272;28;20893;-73
2022/08/31 01:22:34;;;;;;;9.57;5.03;;;19.20;99.90;;;;;;5021929;28;20877;-73
2022/08/31 01:25:02;;;;;;;4.50;4.10;;;19.30;99.90;;;;;;5021619;28;20451;-73
2022/08/31 01:27:34;;;;;;;5.17;4.33;;;19.30;99.90;;;;;;5016991;28;20434;-73
2022/08/31 01:30:02;;;;;;;7.90;4.30;;;19.30;99.90;;;;;;5019420;28;20452;-73
2022/08/31 01:32:28;;;;;;;7.07;4.33;;;19.20;99.90;;;;;;5030431;28;20474;-73
2022/08/31 01:34:55;;;;;;;7.50;4.97;;;19.20;99.90;;;;;;5024371;28;20921;-73
2022/08/31 01:37:22;;;;;;;9.53;5.27;;;19.20;99.90;;;;;;5019229;28;20442;-73
2022/08/31 01:39:49;;;;;;;5.03;4.57;;;19.20;99.90;;;;;;5012432;28;20519;-72
2022/08/31 01:42:18;;;;;;;7.00;5.13;;;19.10;99.90;;;;;;5015720;28;20447;-72
2022/08/31 01:44:44;;;;;;;5.70;4.63;;;19.10;99.90;;;;;;5020727;28;20508;-72
2022/08/31 01:47:11;;;;;;;5.90;5.00;;;19.10;99.90;;;;;;5016068;28;20848;-72
2022/08/31 01:49:38;;;;;;;7.13;4.80;;;19.00;99.90;;;;;;5029060;28;20450;-72
2022/08/31 01:52:05;;;;;;;9.73;5.03;;;19.00;99.90;;;;;;5023605;28;20496;-72
2022/08/31 01:54:32;;;;;;;8.37;5.07;;;19.00;99.90;;;;;;5016349;28;20472;-72
2022/08/31 01:57:00;;;;;;;5.77;5.10;;;18.90;99.90;;;;;;5021998;28;20500;-73
2022/08/31 01:59:28;;;;;;;7.60;4.50;;;19.00;99.90;;;;;;5016957;28;20578;-73
2022/08/31 02:01:56;;;;;;;7.83;4.97;;;18.90;99.90;;;;;;5013481;28;20504;-73
2022/08/31 02:04:25;;;;;;;5.33;4.83;;;18.90;99.90;;;;;;5020102;28;20474;-73
2022/08/31 02:06:54;;;;;;;7.80;5.07;;;18.90;99.90;;;;;;5019415;28;20488;-73
2022/08/31 02:09:22;;;;;;;6.10;5.00;;;18.80;99.90;;;;;;5011748;28;20484;-73
2022/08/31 02:11:49;;;;;;;5.97;4.77;;;18.90;99.90;;;;;;5013875;28;20805;-73
2022/08/31 02:14:17;;;;;;;12.23;5.60;;;18.90;99.90;;;;;;5028053;28;20479;-73
2022/08/31 02:16:45;;;;;;;5.20;4.80;;;18.90;99.90;;;;;;5011264;28;20440;-73
2022/08/31 02:19:12;;;;;;;11.63;4.97;;;18.90;99.90;;;;;;5015062;28;20934;-73
2022/08/31 02:21:39;;;;;;;4.70;4.13;;;18.80;99.90;;;;;;5012264;28;20492;-73
2022/08/31 02:24:06;;;;;;;6.33;4.90;;;18.80;99.90;;;;;;5011553;28;20426;-73
2022/08/31 02:26:33;;;;;;;7.50;5.10;;;18.80;99.90;;;;;;5028535;28;20512;-73
2022/08/31 02:29:01;;;;;;;10.37;6.03;;;18.70;99.90;;;;;;5021196;28;20480;-73
2022/08/31 02:31:27;;;;;;;7.93;5.33;;;18.70;99.90;;;;;;5019008;28;20480;-73
2022/08/31 02:33:55;;;;;;;6.67;5.07;;;18.70;99.90;;;;;;5023666;28;20510;-73
2022/08/31 02:36:22;;;;;;;7.60;5.23;;;18.70;99.90;;;;;;5016747;28;20484;-73
2022/08/31 02:38:49;;;;;;;6.93;5.43;;;18.60;99.90;;;;;;5028943;28;20503;-73
2022/08/31 02:41:16;;;;;;;5.60;4.90;;;18.60;99.90;;;;;;5024955;28;20867;-73
2022/08/31 02:43:43;;;;;;;9.20;5.70;;;18.60;99.90;;;;;;5012203;28;20462;-73
2022/08/31 02:46:09;;;;;;;8.27;5.90;;;18.50;99.90;;;;;;5020127;28;20494;-73
2022/08/31 02:48:36;;;;;;;6.57;5.40;;;18.50;99.90;;;;;;5014343;28;20850;-73
2022/08/31 02:51:07;;;;;;;9.70;5.40;;;18.50;99.90;;;;;;5028899;28;20869;-73
2022/08/31 02:53:34;;;;;;;7.50;4.93;;;18.40;99.90;;;;;;5030109;28;20444;-73
2022/08/31 02:56:00;;;;;;;8.33;5.20;;;18.40;99.90;;;;;;5023494;28;20840;-73
2022/08/31 02:58:27;;;;;;;8.03;5.30;;;18.40;99.90;;;;;;5020134;28;20483;-73
2022/08/31 03:00:54;;;;;;;7.53;5.10;;;18.40;99.90;;;;;;5033933;28;20456;-73
2022/08/31 03:03:21;;;;;;;8.43;5.20;;;18.40;99.90;;;;;;5028857;28;20474;-73
2022/08/31 03:05:48;;;;;;;8.77;5.57;;;18.40;99.90;;;;;;5033712;28;20522;-73
2022/08/31 03:08:16;;;;;;;7.57;5.03;;;18.40;99.90;;;;;;5026206;28;20422;-73
2022/08/31 03:10:42;;;;;;;8.93;5.87;;;18.40;99.90;;;;;;5021203;28;20471;-73
2022/08/31 03:13:09;;;;;;;5.50;5.10;;;18.40;99.90;;;;;;5020063;28;20442;-73
2022/08/31 03:15:35;;;;;;;9.07;5.93;;;18.40;99.90;;;;;;5014402;28;20426;-73
2022/08/31 03:18:02;;;;;;;9.33;4.90;;;18.40;99.90;;;;;;5014344;28;20516;-73
2022/08/31 03:20:29;;;;;;;6.93;5.30;;;18.50;99.90;;;;;;5016136;28;20461;-73
2022/08/31 03:22:56;;;;;;;10.10;5.67;;;18.50;99.90;;;;;;5018542;28;20505;-73
2022/08/31 03:25:24;;;;;;;7.33;5.70;;;18.50;99.90;;;;;;5022337;28;20421;-73
2022/08/31 03:27:51;;;;;;;9.30;5.30;;;18.50;99.90;;;;;;5015016;28;20434;-73
2022/08/31 03:30:20;;;;;;;8.03;5.57;;;18.50;99.90;;;;;;5014924;28;20472;-73
2022/08/31 03:32:49;;;;;;;9.23;6.27;;;18.50;99.90;;;;;;5015621;28;20474;-73
2022/08/31 03:35:16;;;;;;;10.87;5.70;;;18.50;99.90;;;;;;5017606;28;20809;-73
2022/08/31 03:37:43;;;;;;;6.40;5.17;;;18.50;99.90;;;;;;5026442;28;20443;-73
2022/08/31 03:40:10;;;;;;;8.97;5.67;;;18.50;99.90;;;;;;5028127;28;20489;-73
2022/08/31 03:42:39;;;;;;;9.00;5.90;;;18.40;99.90;;;;;;5014121;28;21035;-74
2022/08/31 03:45:07;;;;;;;7.93;5.30;;;18.40;99.90;;;;;;5016163;28;20453;-73
2022/08/31 03:47:34;;;;;;;8.13;5.87;;;18.40;99.90;;;;;;5032231;28;20547;-73
2022/08/31 03:50:02;;;;;;;8.63;5.80;;;18.40;99.90;;;;;;5027927;28;20449;-73
2022/08/31 03:52:29;;;;;;;5.93;5.43;;;18.40;99.90;;;;;;5015310;28;20481;-73
2022/08/31 03:54:56;;;;;;;9.00;5.93;;;18.40;99.90;;;;;;5016539;28;20867;-73
2022/08/31 03:57:23;;;;;;;9.20;5.80;;;18.30;99.90;;;;;;5013716;28;20830;-73
2022/08/31 03:59:53;;;;;;;8.07;6.20;;;18.30;99.90;;;;;;5015862;28;20453;-73
2022/08/31 04:02:20;;;;;;;7.20;6.00;;;18.30;99.90;;;;;;5015320;28;20466;-73
2022/08/31 04:04:50;;;;;;;11.30;6.73;;;18.30;99.90;;;;;;5017859;28;20483;-73
2022/08/31 04:07:17;;;;;;;6.60;5.20;;;18.30;99.90;;;;;;5017598;28;20471;-73
2022/08/31 04:09:43;;;;;;;8.20;6.20;;;18.30;99.90;;;;;;5014176;28;20443;-73
2022/08/31 04:12:10;;;;;;;7.03;5.73;;;18.20;99.90;;;;;;5023741;28;20474;-73
2022/08/31 04:14:37;;;;;;;9.10;6.20;;;18.10;99.90;;;;;;5031773;28;20450;-74
2022/08/31 04:17:05;;;;;;;8.90;5.13;;;18.10;99.90;;;;;;5024179;28;20491;-74
2022/08/31 04:19:32;;;;;;;7.33;5.87;;;18.10;99.90;;;;;;5024918;28;20484;-74
2022/08/31 04:21:58;;;;;;;7.73;6.17;;;18.10;99.90;;;;;;5021513;28;20501;-73
2022/08/31 04:24:25;;;;;;;11.33;5.77;;;18.00;99.90;;;;;;5025391;28;20946;-74
2022/08/31 04:26:52;;;;;;;8.33;6.57;;;18.00;99.90;;;;;;5013571;28;20948;-74
2022/08/31 04:29:19;;;;;;;8.87;5.30;;;18.00;99.90;;;;;;5027830;28;20817;-74
2022/08/31 04:31:46;;;;;;;8.73;5.40;;;18.00;99.90;;;;;;5019817;28;20421;-74
2022/08/31 04:34:15;;;;;;;6.23;5.63;;;18.00;99.90;;;;;;5031624;28;20425;-74
2022/08/31 04:36:44;;;;;;;7.13;5.90;;;17.90;99.90;;;;;;5024188;28;21109;-73
2022/08/31 04:39:12;;;;;;;9.47;5.73;;;17.90;99.90;;;;;;5015729;28;20467;-73
2022/08/31 04:41:40;;;;;;;7.37;5.43;;;17.90;99.90;;;;;;5017967;28;20479;-73
2022/08/31 04:44:10;;;;;;;9.10;6.10;;;17.90;99.90;;;;;;5018792;28;21015;-73
2022/08/31 04:46:38;;;;;;;7.40;5.45;;;17.90;99.90;;;;;;5027118;28;20971;-72
2022/08/31 04:49:06;;;;;;;10.83;5.70;;;18.00;99.90;;;;;;5020702;28;20214;-72
2022/08/31 04:51:36;;;;;;;8.03;6.03;;;18.00;99.90;;;;;;5024165;28;20437;-72
2022/08/31 04:54:04;;;;;;;8.13;5.13;;;18.00;99.90;;;;;;5021742;28;20435;-77
2022/08/31 04:56:33;;;;;;;6.27;5.47;;;18.10;99.90;;;;;;5017321;28;20208;-77
2022/08/31 04:59:02;;;;;;;11.27;5.60;;;18.20;99.90;;;;;;5016158;28;20430;-77
2022/08/31 05:01:35;;;;;;;8.43;5.07;;;18.30;99.90;;;;;;5016355;28;20462;-77
2022/08/31 05:04:03;;;;;;;10.20;5.30;;;18.30;99.90;;;;;;5019174;28;20469;-77
2022/08/31 05:06:32;;;;;;;8.43;5.47;;;18.40;99.90;;;;;;5025819;28;20480;-77
2022/08/31 05:09:02;;;;;;;8.23;5.03;;;18.60;99.90;;;;;;5025944;28;20429;-77
2022/08/31 05:11:29;;;;;;;7.10;5.10;;;18.60;99.90;;;;;;5022414;28;20504;-77
2022/08/31 05:13:57;;;;;;;7.30;4.50;;;18.60;99.90;;;;;;5019610;28;20507;-77
2022/08/31 05:16:25;;;;;;;9.20;4.60;;;18.70;99.90;;;;;;5026918;28;20447;-77
2022/08/31 05:18:51;;;;;;;7.77;5.30;;;18.90;99.90;;;;;;5027812;28;20433;-77
2022/08/31 05:21:24;;;;;;;8.83;4.73;;;19.00;99.90;;;;;;5025868;28;20457;-76
2022/08/31 05:23:51;;;;;;;9.40;4.97;;;18.90;99.90;;;;;;5030415;28;20465;-77
2022/08/31 05:26:21;;;;;;;4.87;4.10;;;19.00;99.90;;;;;;5025923;28;20436;-77
2022/08/31 05:28:48;;;;;;;7.40;5.00;;;19.00;99.90;;;;;;5025630;28;21016;-77
2022/08/31 05:31:16;;;;;;;8.10;4.50;;;19.00;99.90;;;;;;5021303;28;21091;-77
2022/08/31 05:33:44;;;;;;;4.70;4.30;;;18.90;99.90;;;;;;5024293;28;20524;-73
2022/08/31 05:36:12;;;;;;;7.67;4.10;;;18.80;99.90;;;;;;5011181;28;20468;-72
2022/08/31 05:38:39;;;;;;;5.07;4.53;;;18.80;99.90;;;;;;5022125;28;20468;-72
2022/08/31 05:41:07;;;;;;;9.90;4.73;;;18.60;99.90;;;;;;5018882;28;20490;-72
2022/08/31 05:43:35;;;;;;;6.70;5.43;;;18.50;99.90;;;;;;5020407;28;20449;-73
2022/08/31 05:46:05;;;;;;;6.30;4.33;;;18.50;99.90;;;;;;5022410;28;20805;-72
2022/08/31 05:48:33;;;;;;;5.87;5.00;;;18.40;99.90;;;;;;5019812;28;20456;-72
2022/08/31 05:51:01;;;;;;;5.40;4.47;;;18.40;99.90;;;;;;5018778;28;20451;-72
2022/08/31 05:53:28;;;;;;;5.40;4.80;;;18.30;99.90;;;;;;5020592;28;20858;-72
2022/08/31 05:55:59;;;;;;;8.07;4.83;;;18.30;99.90;;;;;;5051748;28;20486;-72
2022/08/31 05:58:26;;;;;;;6.50;4.80;;;18.20;99.90;;;;;;5040575;28;20826;-72
2022/08/31 06:00:53;;;;;;;4.73;4.33;;;18.30;99.90;;;;;;5031397;28;20543;-72
2022/08/31 06:03:20;;;;;;;4.87;4.30;;;18.30;99.90;;;;;;5032056;28;20444;-72
2022/08/31 06:05:49;;;;;;;4.93;4.40;;;18.20;99.90;;;;;;5031157;28;20890;-72
2022/08/31 06:08:16;;;;;;;9.70;4.70;;;18.20;99.90;;;;;;5030569;28;20461;-72
2022/08/31 06:10:43;;;;;;;9.33;4.30;;;18.20;99.90;;;;;;5031213;28;20421;-72
2022/08/31 06:13:10;;;;;;;12.20;4.70;;;18.20;99.90;;;;;;5030993;28;20474;-72
2022/08/31 06:15:36;;;;;;;8.17;4.23;;;18.20;99.90;;;;;;5032528;28;20490;-72
2022/08/31 06:18:06;;;;;;;6.70;4.80;;;18.20;99.90;;;;;;5032954;28;20501;-72
2022/08/31 06:20:36;;;;;;;9.70;4.60;;;18.20;99.90;;;;;;5031875;28;20576;-72
2022/08/31 06:23:04;;;;;;;5.37;4.60;;;18.20;99.90;;;;;;5032725;28;20556;-72
2022/08/31 06:25:31;;;;;;;4.83;4.27;;;18.20;99.90;;;;;;5031081;28;20508;-72
2022/08/31 06:27:58;;;;;;;5.20;4.50;;;18.20;99.90;;;;;;5031446;28;20457;-72
2022/08/31 06:30:26;;;;;;;6.43;5.00;;;18.20;99.90;;;;;;5031515;28;20923;-72
2022/08/31 06:32:52;;;;;;;6.37;4.47;;;18.20;99.90;;;;;;5030881;28;20478;-72
2022/08/31 06:35:21;;;;;;;9.00;5.37;;;18.20;99.90;;;;;;5030965;28;20425;-72
2022/08/31 06:37:48;;;;;;;7.83;4.33;;;18.20;99.90;;;;;;5031502;28;20440;-72
2022/08/31 06:40:16;;;;;;;7.93;4.90;;;18.30;99.90;;;;;;5030381;28;20429;-72
2022/08/31 06:42:43;;;;;;;6.93;4.60;;;18.30;99.90;;;;;;5031469;28;20501;-73
2022/08/31 06:45:11;;;;;;;5.67;4.80;;;18.30;99.90;;;;;;5031266;28;20446;-72
2022/08/31 06:47:37;;;;;;;8.17;4.60;;;18.30;99.90;;;;;;5030675;28;20450;-72
2022/08/31 06:50:05;;;;;;;5.67;4.80;;;18.30;99.90;;;;;;5031476;28;20471;-72
2022/08/31 06:52:33;;;;;;;5.47;4.63;;;18.30;99.90;;;;;;5030792;28;20897;-72
2022/08/31 06:54:59;;;;;;;6.13;4.53;;;18.30;99.90;;;;;;5030515;28;20946;-72
2022/08/31 06:57:26;;;;;;;10.57;4.50;;;18.30;99.90;;;;;;5031327;28;20470;-72
2022/08/31 06:59:53;;;;;;;5.50;4.43;;;18.40;99.90;;;;;;5030882;28;20454;-72
2022/08/31 07:02:20;;;;;;;8.37;5.07;;;18.40;99.90;;;;;;5030780;28;20552;-72
2022/08/31 07:04:47;;;;;;;5.10;4.60;;;18.40;99.90;;;;;;5031035;28;20429;-72
2022/08/31 07:07:13;;;;;;;6.93;4.57;;;18.60;99.90;;;;;;5030186;28;20486;-72
2022/08/31 07:09:41;;;;;;;5.53;4.77;;;18.40;99.90;;;;;;5031124;28;20454;-72
2022/08/31 07:12:08;;;;;;;7.00;4.67;;;18.40;99.90;;;;;;5031224;28;20474;-72
2022/08/31 07:14:36;;;;;;;5.17;4.67;;;18.50;99.90;;;;;;5030200;28;20504;-72
2022/08/31 07:17:03;;;;;;;8.83;6.00;;;18.50;99.90;;;;;;5031612;28;20466;-72
2022/08/31 07:19:30;;;;;;;7.53;5.20;;;18.50;99.90;;;;;;5030834;28;20461;-72
2022/08/31 07:21:59;;;;;;;10.03;4.90;;;18.50;99.90;;;;;;5030367;28;20575;-72
2022/08/31 07:24:29;;;;;;;5.50;4.67;;;18.50;99.90;;;;;;5031227;28;20454;-72
2022/08/31 07:26:59;;;;;;;12.20;5.30;;;18.50;99.90;;;;;;5030946;28;20504;-73
2022/08/31 07:29:29;;;;;;;7.70;5.43;;;18.60;99.90;;;;;;5030534;28;20836;-72
2022/08/31 07:31:56;;;;;;;9.40;4.60;;;18.60;99.90;;;;;;5030802;28;20467;-72
2022/08/31 07:34:25;;;;;;;16.37;5.93;;;18.60;99.90;;;;;;5030019;28;20425;-72
2022/08/31 07:42:27;;;;;;;8.00;5.03;;;18.70;99.90;;;;;;5030190;28;20475;-72
2022/08/31 07:44:55;;;;;;;10.23;5.07;;;18.70;99.90;;;;;;5031483;28;20494;-72
2022/08/31 07:47:21;;;;;;;7.50;5.17;;;18.80;99.90;;;;;;5034015;28;20454;-72
2022/08/31 07:49:50;;;;;;;11.07;4.50;;;18.80;99.90;;;;;;5034000;28;20547;-72
2022/08/31 07:52:19;;;;;;;5.63;4.93;;;18.90;99.90;;;;;;5034405;28;20476;-72
2022/08/31 07:54:46;;;;;;;6.63;4.83;;;18.90;99.90;;;;;;5033554;28;20433;-73
2022/08/31 07:57:13;;;;;;;5.70;4.50;;;19.00;99.90;;;;;;5033838;28;20428;-72
2022/08/31 07:59:41;;;;;;;7.00;4.77;;;19.00;99.90;;;;;;5034560;28;20462;-72
2022/08/31 08:02:08;;;;;;;7.33;5.00;;;19.00;99.90;;;;;;5033181;28;20543;-72
2022/08/31 08:04:42;;;;;;;6.93;5.20;;;19.00;99.90;;;;;;5034325;28;20450;-72
2022/08/31 08:07:11;;;;;;;10.00;6.17;;;19.00;99.90;;;;;;5014107;28;20455;-72
2022/08/31 08:09:38;;;;;;;6.80;5.00;;;19.00;99.90;;;;;;5013525;28;20508;-72
2022/08/31 08:12:06;;;;;;;7.77;5.10;;;19.00;99.90;;;;;;5014497;28;20466;-72
2022/08/31 08:14:34;;;;;;;7.50;5.77;;;19.00;99.90;;;;;;5013936;28;20466;-72
2022/08/31 08:17:03;;;;;;;16.60;8.23;;;19.00;99.90;;;;;;5013558;28;20479;-72
2022/08/31 08:19:32;;;;;;;14.67;7.43;;;19.10;99.90;;;;;;5014416;28;20428;-72
2022/08/31 08:22:01;;;;;;;8.70;5.40;;;19.20;99.90;;;;;;5013110;28;20489;-72
2022/08/31 08:24:30;;;;;;;6.43;5.50;;;19.20;99.90;;;;;;5013780;28;20462;-72
2022/08/31 08:26:57;;;;;;;5.43;4.93;;;19.20;99.90;;;;;;5013730;28;20914;-72
2022/08/31 08:29:23;;;;;;;14.03;4.70;;;19.20;99.90;;;;;;5013429;28;20848;-72
2022/08/31 08:31:52;;;;;;;5.33;4.70;;;19.20;99.90;;;;;;5013719;28;20425;-72
2022/08/31 08:34:22;;;;;;;4.70;4.30;;;19.10;99.90;;;;;;5013747;28;20433;-72
2022/08/31 08:36:49;;;;;;;6.90;4.90;;;19.20;99.90;;;;;;5013265;28;20463;-72
2022/08/31 08:39:18;;;;;;;9.50;5.23;;;19.20;99.90;;;;;;5014274;28;20485;-72
2022/08/31 08:41:46;;;;;;;11.47;5.20;;;19.30;99.90;;;;;;5013129;28;20513;-72
2022/08/31 08:44:16;;;;;;;8.23;4.70;;;19.30;99.90;;;;;;5013484;28;20485;-72
2022/08/31 08:46:47;;;;;;;8.60;4.60;;;19.40;99.90;;;;;;5013480;28;20497;-72
2022/08/31 08:49:24;;;;;;;8.50;5.03;;;19.40;99.90;;;;;;5012699;28;20461;-72
2022/08/31 08:51:54;;;;;;;9.37;4.87;;;19.50;99.90;;;;;;5013463;28;20505;-72
2022/08/31 08:54:31;;;;;;;12.23;7.63;;;19.50;99.90;;;;;;5013263;28;21004;-72
2022/08/31 08:56:58;;;;;;;7.70;5.10;;;19.50;99.90;;;;;;5012653;28;20441;-72
2022/08/31 08:59:27;;;;;;;5.90;5.30;;;19.50;99.90;;;;;;5030618;28;20568;-72
2022/08/31 09:02:05;;;;;;;5.37;4.50;;;19.50;99.90;;;;;;5032546;28;20861;-72
2022/08/31 09:04:58;;;;;;;8.90;4.90;;;19.50;99.90;;;;;;5032760;28;20456;-72
2022/08/31 09:07:38;;;;;;;6.07;5.43;;;19.50;99.90;;;;;;5013325;28;20512;-72
2022/08/31 09:10:14;;;;;;;5.80;5.20;;;19.60;99.90;;;;;;5012171;28;20915;-72
2022/08/31 09:12:47;;;;;;;6.00;5.20;;;19.60;99.90;;;;;;5013429;28;20445;-71
2022/08/31 09:15:31;;;;;;;12.80;5.43;;;19.60;99.90;;;;;;5012641;28;20527;-72
2022/08/31 09:18:06;;;;;;;6.93;4.83;;;19.60;99.90;;;;;;5012690;28;20466;-72
2022/08/31 09:20:34;;;;;;;6.20;5.20;;;19.70;99.90;;;;;;5012986;28;20878;-72
2022/08/31 09:23:02;;;;;;;9.10;5.03;;;19.70;99.90;;;;;;5012604;28;20527;-72
2022/08/31 09:25:34;;;;;;;12.70;4.60;;;19.80;99.90;;;;;;5012672;28;20545;-72
2022/08/31 09:28:06;;;;;;;23.43;5.50;;;19.90;99.90;;;;;;5012893;28;21022;-72
2022/08/31 09:30:39;;;;;;;11.23;4.73;;;19.90;99.90;;;;;;5011924;28;20486;-72
2022/08/31 09:33:06;;;;;;;5.67;4.40;;;20.00;99.90;;;;;;5012356;28;20446;-73
2022/08/31 09:35:40;;;;;;;11.67;4.63;;;20.00;99.90;;;;;;5012459;28;20430;-73
2022/08/31 09:38:10;;;;;;;6.70;4.30;;;20.00;99.90;;;;;;5012096;28;20562;-71
2022/08/31 09:40:40;;;;;;;11.57;4.87;;;20.00;99.90;;;;;;5012986;28;20451;-71
2022/08/31 09:43:10;;;;;;;8.60;5.07;;;20.00;99.90;;;;;;5011859;28;20473;-71
2022/08/31 09:45:39;;;;;;;5.10;4.53;;;20.00;99.90;;;;;;5011797;28;20525;-71
2022/08/31 09:48:08;;;;;;;10.83;5.10;;;20.00;99.90;;;;;;5012554;28;20906;-71
2022/08/31 09:50:43;;;;;;;5.70;4.97;;;20.00;99.90;;;;;;5011725;28;20475;-72
2022/08/31 09:56:12;;;;;;;6.20;5.00;;;20.00;99.90;;;;;;4999898;28;20493;-72
2022/08/31 09:58:40;;;;;;;7.37;5.23;;;20.10;99.90;;;;;;5022751;28;20441;-72
2022/08/31 10:01:13;;;;;;;8.43;4.87;;;20.20;99.90;;;;;;5032232;28;20511;-72
2022/08/31 10:03:44;;;;;;;5.80;5.27;;;20.20;99.90;;;;;;5031138;28;20463;-72
2022/08/31 10:06:29;;;;;;;7.63;5.60;;;20.30;99.90;;;;;;5031531;28;20454;-72
2022/08/31 10:09:02;;;;;;;8.33;5.20;;;20.40;99.90;;;;;;5031644;28;20464;-72
2022/08/31 10:11:33;;;;;;;9.17;5.10;;;20.40;99.90;;;;;;5031268;28;20515;-72
2022/08/31 10:14:13;;;;;;;8.87;5.63;;;20.50;99.90;;;;;;5031859;28;20440;-71
2022/08/31 10:16:46;;;;;;;6.87;6.17;;;20.60;99.90;;;;;;5031007;28;20971;-71
2022/08/31 10:19:18;;;;;;;6.53;5.77;;;20.70;99.90;;;;;;5031671;28;20451;-71
2022/08/31 10:21:50;;;;;;;6.90;5.30;;;20.80;99.90;;;;;;5031826;28;20517;-72
2022/08/31 10:24:26;;;;;;;6.57;4.90;;;20.80;99.90;;;;;;5031195;28;20428;-71
2022/08/31 10:27:02;;;;;;;7.43;4.97;;;20.90;99.90;;;;;;5031765;28;20956;-71
2022/08/31 10:29:34;;;;;;;10.10;6.17;;;21.00;99.90;;;;;;5031655;28;20416;-71
2022/08/31 10:32:09;;;;;;;6.50;5.40;;;21.00;99.90;;;;;;5030935;28;20466;-71
2022/08/31 10:37:32;;;;;;;5.50;5.00;;;21.10;99.90;;;;;;5030764;28;20419;-71
2022/08/31 10:40:05;;;;;;;6.17;5.30;;;21.30;99.90;;;;;;5031547;28;20457;-71
2022/08/31 10:42:37;;;;;;;6.90;5.10;;;21.40;99.90;;;;;;5031560;28;20482;-71
2022/08/31 10:45:11;;;;;;;7.17;5.40;;;21.60;99.90;;;;;;5030913;28;20504;-71
2022/08/31 10:47:45;;;;;;;7.33;4.90;;;21.80;99.90;;;;;;5031689;28;20536;-71
2022/08/31 10:50:15;;;;;;;14.10;5.67;;;22.00;99.90;;;;;;5030940;28;20787;-71
2022/08/31 10:52:56;;;;;;;7.40;4.90;;;22.20;99.90;;;;;;5031049;28;20543;-72
2022/08/31 10:55:29;;;;;;;5.03;4.63;;;22.20;99.90;;;;;;5031386;28;20446;-71
2022/08/31 10:58:07;;;;;;;5.47;4.97;;;22.40;99.90;;;;;;5030870;28;20462;-71
2022/08/31 11:00:45;;;;;;;9.83;5.10;;;22.60;99.90;;;;;;5030982;28;20868;-71
2022/08/31 11:03:17;;;;;;;5.90;5.10;;;22.70;99.90;;;;;;5031097;28;21048;-72
2022/08/31 11:05:49;;;;;;;5.53;5.03;;;22.80;99.90;;;;;;5030446;28;20886;-71
2022/08/31 11:08:35;;;;;;;5.30;4.80;;;23.00;99.90;;;;;;5031456;28;20647;-71
2022/08/31 11:11:07;;;;;;;5.33;4.60;;;23.10;99.90;;;;;;5030936;28;20520;-72
2022/08/31 11:13:52;;;;;;;12.60;4.43;;;23.10;99.90;;;;;;5030776;28;20814;-72
2022/08/31 11:16:37;;;;;;;5.07;4.67;;;23.20;99.90;;;;;;5031334;28;20465;-71
2022/08/31 11:19:24;;;;;;;5.30;4.80;;;23.20;99.90;;;;;;5030424;28;20450;-72
2022/08/31 11:22:18;;;;;;;5.67;4.70;;;23.30;99.90;;;;;;5035345;28;20454;-72
2022/08/31 11:25:17;;;;;;;5.30;4.90;;;23.30;99.90;;;;;;5034814;28;20441;-72
2022/08/31 11:27:49;;;;;;;14.00;4.87;;;23.50;99.90;;;;;;5022720;28;20474;-72
2022/08/31 11:30:22;;;;;;;7.20;5.00;;;23.60;99.90;;;;;;5035072;28;20446;-71
2022/08/31 11:32:52;;;;;;;6.03;5.23;;;23.80;99.90;;;;;;5033882;28;20465;-72
2022/08/31 11:35:56;;;;;;;5.17;4.67;;;24.10;99.90;;;;;;5034678;28;20458;-72
2022/08/31 11:38:50;;;;;;;7.17;5.00;;;24.40;99.90;;;;;;5034195;28;20488;-72
2022/08/31 11:41:37;;;;;;;7.50;5.53;;;24.80;99.90;;;;;;5034733;28;20449;-72
2022/08/31 11:44:06;;;;;;;5.33;4.83;;;25.10;99.90;;;;;;5033985;28;20486;-71
2022/08/31 11:47:02;;;;;;;4.70;4.30;;;25.10;99.90;;;;;;5033603;28;20456;-72
2022/08/31 11:49:37;;;;;;;5.10;4.00;;;25.10;99.90;;;;;;5034548;28;20960;-71
2022/08/31 11:52:10;;;;;;;14.23;4.47;;;25.10;99.90;;;;;;5033940;28;20551;-72
2022/08/31 11:55:01;;;;;;;5.87;4.60;;;25.60;99.90;;;;;;5033808;28;20494;-71
2022/08/31 11:57:32;;;;;;;5.83;4.20;;;25.80;99.90;;;;;;5034447;28;20454;-72
2022/08/31 11:59:59;;;;;;;4.43;4.03;;;26.10;99.90;;;;;;5033408;28;20824;-72
2022/08/31 12:02:44;;;;;;;5.67;4.20;;;26.00;99.90;;;;;;5034323;28;20490;-72
2022/08/31 12:05:11;;;;;;;5.00;4.00;;;25.90;99.90;;;;;;5033269;28;20938;-72
2022/08/31 12:07:42;;;;;;;5.57;4.27;;;25.80;99.90;;;;;;5033908;28;20461;-72
2022/08/31 12:10:31;;;;;;;4.00;3.73;;;25.70;99.90;;;;;;5034559;28;20508;-71
2022/08/31 12:13:17;;;;;;;4.93;3.83;;;25.50;99.90;;;;;;5033355;28;20549;-72
2022/08/31 12:16:13;;;;;;;4.63;4.20;;;25.40;99.90;;;;;;5033601;28;20824;-71
2022/08/31 12:19:03;;;;;;;5.17;4.00;;;25.30;99.90;;;;;;5033614;28;20934;-72
2022/08/31 12:24:35;;;;;;;7.10;4.30;;;25.30;99.90;;;;;;5033853;28;20941;-72
2022/08/31 12:27:17;;;;;;;6.47;4.20;;;25.30;99.90;;;;;;5033105;28;20476;-71
2022/08/31 12:29:45;;;;;;;4.87;4.47;;;25.50;99.90;;;;;;5033896;28;20492;-71
2022/08/31 12:32:18;;;;;;;4.37;3.80;;;25.80;99.90;;;;;;5032945;28;20504;-72
2022/08/31 12:34:49;;;;;;;4.50;4.10;;;26.10;99.90;;;;;;5033141;28;20450;-72
2022/08/31 12:37:23;;;;;;;6.63;3.97;;;26.40;99.90;;;;;;5033900;28;20465;-72
2022/08/31 12:40:06;;;;;;;5.10;4.10;;;26.40;99.90;;;;;;5033048;28;20456;-72
2022/08/31 12:42:35;;;;;;;4.43;4.00;;;26.60;99.90;;;;;;5033147;28;20481;-72
2022/08/31 12:45:05;;;;;;;4.73;4.30;;;26.90;99.90;;;;;;5033261;28;20450;-71
2022/08/31 12:47:41;;;;;;;4.43;4.03;;;27.20;99.90;;;;;;5032415;28;20942;-72
2022/08/31 12:50:16;;;;;;;5.30;4.27;;;27.40;99.90;;;;;;5033849;28;20538;-73
2022/08/31 12:53:18;;;;;;;7.40;3.47;;;27.20;99.90;;;;;;5033057;28;20466;-72
2022/08/31 12:55:53;;;;;;;4.33;3.57;;;27.10;99.90;;;;;;5027512;28;20465;-72
2022/08/31 12:58:42;;;;;;;4.20;3.80;;;27.30;99.40;;;;;;5033560;28;20544;-71
2022/08/31 13:01:13;;;;;;;5.67;4.00;;;27.80;99.90;;;;;;5032423;28;20460;-71
2022/08/31 13:03:45;;;;;;;5.50;4.00;;;28.20;98.80;;;;;;5033105;28;20909;-71
2022/08/31 13:06:14;;;;;;;5.03;4.60;;;27.80;98.40;;;;;;5032697;28;20812;-71
2022/08/31 13:08:43;;;;;;;6.20;3.90;;;27.40;98.20;;;;;;5032650;28;20860;-71
2022/08/31 13:11:15;;;;;;;4.60;4.00;;;26.90;98.30;;;;;;5033047;28;20457;-71
2022/08/31 13:13:42;;;;;;;7.60;4.27;;;26.40;98.20;;;;;;5032261;28;20466;-71
2022/08/31 13:16:12;;;;;;;6.87;4.80;;;26.20;98.50;;;;;;5032049;28;20466;-71
2022/08/31 13:18:39;;;;;;;5.67;4.90;;;26.10;99.40;;;;;;5033331;28;20450;-71
2022/08/31 13:21:07;;;;;;;5.53;4.67;;;26.00;99.80;;;;;;5032019;28;20449;-71